Time;durP1;ratioP1;P1;durP2;ratioP2;P2;SDS_P1;SDS_P2;PMS_P1;PMS_P2;Temp;Humidity;BMP_temperature;BMP_pressure;BME280_temperature;BME280_humidity;BME280_pressure;Samples;Min_cycle;Max_cycle;Signal;HPM_P1;HPM_P2
2021/03/27 00:00:25;;;;;;;14.00;5.32;;;;;;;7.68;70.42;98946.31;5041517;28;20506;-82
2021/03/27 00:02:58;;;;;;;9.30;4.78;;;;;;;7.65;70.26;98936.72;5044212;28;20052;-82
2021/03/27 00:05:30;;;;;;;11.13;5.38;;;;;;;7.47;70.57;98949.56;5050837;28;20060;-82
2021/03/27 00:08:11;;;;;;;9.15;5.18;;;;;;;7.60;69.92;98966.97;5044434;28;20046;-82
2021/03/27 00:10:43;;;;;;;7.50;4.82;;;;;;;7.71;69.29;98965.78;5050859;28;20497;-82
2021/03/27 00:13:21;;;;;;;7.55;5.30;;;;;;;7.86;69.39;98978.59;5049476;28;20629;-82
2021/03/27 00:15:54;;;;;;;13.02;5.32;;;;;;;7.82;69.19;98963.75;5051167;28;20424;-82
2021/03/27 00:18:27;;;;;;;8.88;5.30;;;;;;;7.82;69.42;98978.09;5045623;28;20076;-82
2021/03/27 00:21:01;;;;;;;8.15;4.78;;;;;;;7.73;69.87;98971.03;5045630;28;20046;-82
2021/03/27 00:23:34;;;;;;;9.57;5.60;;;;;;;7.60;69.64;98952.59;5043226;28;20060;-82
2021/03/27 00:26:06;;;;;;;12.38;5.60;;;;;;;7.77;69.32;98966.97;5051128;28;20382;-82
2021/03/27 00:28:40;;;;;;;12.73;5.50;;;;;;;7.77;69.69;98988.63;5049082;28;20049;-82
2021/03/27 00:31:12;;;;;;;10.57;4.72;;;;;;;7.67;69.60;98956.31;5049879;28;20116;-83
2021/03/27 00:33:46;;;;;;;8.98;5.40;;;;;;;7.80;69.40;98980.16;5044761;28;20085;-82
2021/03/27 00:36:19;;;;;;;10.70;5.18;;;;;;;7.80;70.05;98961.22;5043869;28;20045;-82
2021/03/27 00:38:55;;;;;;;9.18;5.18;;;;;;;7.73;70.17;98928.56;5047411;28;20452;-83
2021/03/27 00:41:27;;;;;;;9.40;4.70;;;;;;;7.83;70.72;98938.34;5047779;28;20098;-82
2021/03/27 00:43:58;;;;;;;9.80;4.90;;;;;;;7.90;70.61;98936.63;5053933;28;20177;-82
2021/03/27 00:46:25;;;;;;;7.13;4.57;;;;;;;8.05;69.78;98920.53;5036653;28;20061;-83
2021/03/27 00:48:56;;;;;;;7.93;4.90;;;;;;;8.29;69.73;98946.66;5054745;28;20041;-82
2021/03/27 00:51:28;;;;;;;10.45;4.47;;;;;;;8.36;69.72;98949.53;5041688;28;20045;-82
2021/03/27 00:53:59;;;;;;;8.20;4.88;;;;;;;8.38;69.53;98934.78;5045617;28;20049;-82
2021/03/27 00:56:30;;;;;;;12.63;5.03;;;;;;;8.46;69.49;98933.91;5053473;28;20282;-82
2021/03/27 00:59:05;;;;;;;8.43;4.38;;;;;;;8.64;68.80;98947.19;5052996;28;20060;-82
2021/03/27 01:01:40;;;;;;;11.25;4.53;;;;;;;8.71;68.69;98944.63;5053138;28;20049;-82
2021/03/27 01:04:10;;;;;;;7.88;4.15;;;;;;;8.83;68.33;98963.00;5053819;28;20123;-82
2021/03/27 01:06:42;;;;;;;8.07;4.43;;;;;;;8.71;68.29;98926.50;5053584;28;20049;-82
2021/03/27 01:09:12;;;;;;;8.65;4.30;;;;;;;8.91;67.57;98953.97;5054304;28;20510;-81
2021/03/27 01:11:43;;;;;;;6.95;4.22;;;;;;;8.82;68.07;98923.41;5049609;28;20103;-82
2021/03/27 01:14:17;;;;;;;6.97;3.60;;;;;;;9.02;67.09;98953.59;5051658;28;20060;-82
2021/03/27 01:16:49;;;;;;;6.63;4.18;;;;;;;9.03;67.25;98940.84;5048276;28;20052;-82
2021/03/27 01:19:19;;;;;;;8.50;4.40;;;;;;;9.23;66.77;98940.38;5051221;28;20049;-81
2021/03/27 01:21:47;;;;;;;11.02;3.90;;;;;;;9.20;66.73;98952.44;5050814;28;20045;-82
2021/03/27 01:24:17;;;;;;;8.32;3.92;;;;;;;9.25;66.49;98936.47;5051390;28;20056;-83
2021/03/27 01:26:55;;;;;;;10.35;3.88;;;;;;;9.26;66.83;98938.16;5036649;28;20045;-83
2021/03/27 01:29:28;;;;;;;8.10;3.72;;;;;;;9.23;66.05;98915.97;5053700;28;20107;-82
2021/03/27 01:32:03;;;;;;;7.47;3.72;;;;;;;9.42;66.49;98937.16;5047173;28;20045;-83
2021/03/27 01:34:34;;;;;;;5.88;3.42;;;;;;;9.30;66.83;98927.78;5041377;28;20045;-82
2021/03/27 01:37:15;;;;;;;5.63;3.53;;;;;;;9.36;66.49;98932.47;5047172;28;20118;-82
2021/03/27 01:39:58;;;;;;;5.75;3.13;;;;;;;9.35;66.60;98917.25;5045971;28;20041;-83
2021/03/27 01:42:39;;;;;;;4.22;2.85;;;;;;;9.37;67.23;98929.56;5049749;28;20115;-83
2021/03/27 01:45:32;;;;;;;4.90;2.78;;;;;;;9.62;65.87;98933.94;5040758;28;20503;-82
2021/03/27 01:48:08;;;;;;;4.07;2.55;;;;;;;9.70;64.91;98937.41;5040947;28;20053;-83
2021/03/27 01:50:42;;;;;;;5.95;3.78;;;;;;;9.81;65.39;98954.28;5051292;28;20140;-82
2021/03/27 01:53:21;;;;;;;5.45;2.75;;;;;;;9.80;64.98;98936.28;5048585;28;20408;-83
2021/03/27 01:56:02;;;;;;;4.18;2.22;;;;;;;10.03;64.34;98949.81;5046845;28;20056;-83
2021/03/27 01:58:34;;;;;;;7.45;2.65;;;;;;;10.12;65.40;98962.28;5038560;28;20041;-83
2021/03/27 02:01:08;;;;;;;4.70;2.88;;;;;;;10.16;66.17;98957.28;5054830;28;20045;-82
2021/03/27 02:03:42;;;;;;;4.13;2.63;;;;;;;10.09;67.99;98968.06;5051421;28;20056;-82
2021/03/27 02:06:13;;;;;;;7.93;2.88;;;;;;;9.91;69.55;98955.69;5050540;28;20393;-83
2021/03/27 02:08:48;;;;;;;8.60;2.83;;;;;;;9.72;71.99;98953.50;5051561;28;20037;-84
2021/03/27 02:11:23;;;;;;;3.42;2.13;;;;;;;9.73;73.31;98972.31;5042087;28;20507;-83
2021/03/27 02:13:54;;;;;;;5.53;2.88;;;;;;;9.52;73.47;98974.91;5051640;28;20449;-83
2021/03/27 02:16:29;;;;;;;3.78;3.35;;;;;;;9.48;74.88;98979.00;5043666;28;20053;-84
2021/03/27 02:19:20;;;;;;;4.30;2.65;;;;;;;9.40;75.49;98982.63;5033885;28;20159;-84
2021/03/27 02:21:55;;;;;;;5.88;2.53;;;;;;;9.42;75.00;98993.31;5051496;28;20053;-84
2021/03/27 02:24:37;;;;;;;10.77;3.22;;;;;;;9.33;76.17;98990.66;5049989;28;20052;-83
2021/03/27 02:27:09;;;;;;;6.65;2.88;;;;;;;9.24;76.21;98970.03;5051155;28;20053;-84
2021/03/27 02:29:58;;;;;;;8.95;3.00;;;;;;;9.23;76.68;98981.91;5048663;28;20049;-84
2021/03/27 02:32:37;;;;;;;5.55;2.80;;;;;;;9.18;77.32;98993.31;5034651;28;20157;-83
2021/03/27 02:35:13;;;;;;;3.75;2.65;;;;;;;9.19;77.31;99008.53;5049097;28;20053;-84
2021/03/27 02:37:53;;;;;;;5.60;3.45;;;;;;;9.14;77.07;98999.28;5048697;28;20044;-83
2021/03/27 02:40:23;;;;;;;5.75;3.33;;;;;;;9.22;77.58;99015.50;5048903;28;20801;-83
2021/03/27 02:42:58;;;;;;;7.85;3.67;;;;;;;9.13;77.86;98989.44;5045345;28;20068;-83
2021/03/27 02:45:32;;;;;;;4.47;2.95;;;;;;;9.15;77.49;98999.09;5048373;28;20494;-83
2021/03/27 02:48:10;;;;;;;6.47;3.38;;;;;;;9.04;78.48;98981.34;5043754;28;20060;-83
2021/03/27 02:50:49;;;;;;;4.47;2.72;;;;;;;9.03;78.46;98979.69;5049306;28;20049;-83
2021/03/27 02:53:18;;;;;;;7.20;3.37;;;;;;;8.95;78.52;98970.75;5043427;28;20540;-83
2021/03/27 02:55:57;;;;;;;8.35;3.47;;;;;;;9.01;78.38;98987.13;5041736;28;20437;-83
2021/03/27 02:58:28;;;;;;;5.73;3.50;;;;;;;8.93;78.51;98972.81;5048269;28;20049;-83
2021/03/27 03:01:02;;;;;;;4.88;3.10;;;;;;;8.97;77.99;98974.13;5050251;28;20051;-82
2021/03/27 03:03:38;;;;;;;3.67;3.17;;;;;;;9.01;77.98;98999.84;5036415;28;20048;-82
2021/03/27 03:06:17;;;;;;;5.55;3.65;;;;;;;8.93;79.07;98970.09;5031005;28;20072;-83
2021/03/27 03:08:50;;;;;;;5.78;3.63;;;;;;;8.92;79.58;98982.78;5049353;28;20124;-83
2021/03/27 03:11:24;;;;;;;8.15;4.53;;;;;;;8.81;79.84;98992.19;5035336;28;20049;-83
2021/03/27 03:13:57;;;;;;;8.88;3.92;;;;;;;8.89;79.86;98999.41;5048704;28;20041;-83
2021/03/27 03:16:29;;;;;;;6.40;4.00;;;;;;;8.83;80.18;98994.72;5050856;28;20087;-83
2021/03/27 03:19:01;;;;;;;7.60;3.55;;;;;;;8.73;80.47;98994.94;5051288;28;20497;-83
2021/03/27 03:21:31;;;;;;;5.20;3.70;;;;;;;8.68;80.50;98994.59;5043598;28;20045;-83
2021/03/27 03:24:09;;;;;;;6.65;3.58;;;;;;;8.77;79.75;98993.53;5043417;28;20049;-82
2021/03/27 03:26:49;;;;;;;6.65;3.72;;;;;;;8.76;80.32;99002.72;5030670;28;20057;-83
2021/03/27 03:29:22;;;;;;;7.18;3.67;;;;;;;8.63;79.60;99003.28;5042899;28;20315;-83
2021/03/27 03:32:07;;;;;;;5.15;3.20;;;;;;;8.63;80.31;99022.25;5050943;28;20057;-83
2021/03/27 03:35:08;;;;;;;6.65;2.95;;;;;;;8.73;79.81;99042.88;5041755;28;20046;-83
2021/03/27 03:38:10;;;;;;;3.78;2.75;;;;;;;8.81;79.46;99062.66;5001520;28;20076;-82
2021/03/27 03:40:53;;;;;;;5.43;2.53;;;;;;;8.79;79.53;99090.94;5028288;28;20049;-84
2021/03/27 03:43:28;;;;;;;7.35;2.05;;;;;;;8.78;77.34;99089.28;5040287;28;20056;-84
2021/03/27 03:46:30;;;;;;;2.85;1.83;;;;;;;8.60;78.48;99111.19;5036656;28;20051;-84
2021/03/27 03:49:17;;;;;;;1.45;1.10;;;;;;;8.23;78.63;99116.09;5040677;28;20502;-82
2021/03/27 03:52:04;;;;;;;2.15;1.63;;;;;;;8.21;78.16;99153.38;5051246;28;20067;-81
2021/03/27 03:54:44;;;;;;;2.42;1.48;;;;;;;7.95;76.56;99121.88;5034320;28;20680;-85
2021/03/27 03:57:17;;;;;;;1.33;1.20;;;;;;;7.89;76.63;99132.53;5041649;28;20401;-82
2021/03/27 03:59:52;;;;;;;1.65;1.48;;;;;;;7.94;76.80;99162.66;5050629;28;20041;-83
2021/03/27 04:02:30;;;;;;;2.33;1.70;;;;;;;7.86;77.22;99155.38;5033266;28;20076;-82
2021/03/27 04:05:02;;;;;;;3.80;1.50;;;;;;;7.89;76.68;99184.81;5037222;28;20493;-82
2021/03/27 04:07:33;;;;;;;2.25;1.80;;;;;;;7.79;77.85;99176.84;5045473;28;20051;-82
2021/03/27 04:10:03;;;;;;;1.73;1.25;;;;;;;7.71;78.43;99190.38;5045033;28;20057;-82
2021/03/27 04:12:36;;;;;;;2.40;1.52;;;;;;;7.61;78.20;99185.09;5041934;28;20124;-82
2021/03/27 04:15:24;;;;;;;1.90;1.60;;;;;;;7.60;78.34;99178.00;5043856;28;20114;-82
2021/03/27 04:18:01;;;;;;;2.05;1.60;;;;;;;7.69;78.18;99215.91;5049758;28;20053;-82
2021/03/27 04:20:44;;;;;;;2.83;1.42;;;;;;;7.49;78.44;99196.41;5049991;28;20053;-82
2021/03/27 04:23:18;;;;;;;2.25;1.50;;;;;;;7.58;77.81;99227.88;5038494;28;20049;-82
2021/03/27 04:25:55;;;;;;;0.95;0.88;;;;;;;7.51;76.35;99248.47;5041031;28;20045;-83
2021/03/27 04:28:45;;;;;;;2.28;1.35;;;;;;;7.48;77.17;99246.94;5053973;28;20049;-82
2021/03/27 04:31:20;;;;;;;2.38;1.25;;;;;;;7.45;76.95;99249.97;5056959;28;20041;-82
2021/03/27 04:33:51;;;;;;;2.53;1.25;;;;;;;7.25;75.33;99242.09;5050125;28;20125;-83
2021/03/27 04:36:23;;;;;;;3.25;1.00;;;;;;;7.22;75.12;99257.81;5049103;28;20061;-82
2021/03/27 04:38:57;;;;;;;0.85;0.85;;;;;;;7.09;75.46;99252.84;5047625;28;20052;-82
2021/03/27 04:41:37;;;;;;;1.15;1.00;;;;;;;7.06;76.22;99264.84;5048856;28;20076;-83
2021/03/27 04:44:10;;;;;;;1.27;0.90;;;;;;;7.14;76.19;99298.34;5049105;28;20053;-82
2021/03/27 04:46:45;;;;;;;1.05;0.93;;;;;;;7.08;76.01;99313.34;5037114;28;20131;-83
2021/03/27 04:49:21;;;;;;;0.90;0.80;;;;;;;6.93;75.43;99315.75;5042326;28;20558;-83
2021/03/27 04:51:57;;;;;;;2.10;0.82;;;;;;;6.82;75.71;99324.09;5041341;28;20060;-83
2021/03/27 04:54:37;;;;;;;0.73;0.73;;;;;;;6.77;75.48;99339.97;5047453;28;20057;-82
2021/03/27 04:57:16;;;;;;;2.28;0.93;;;;;;;6.62;75.00;99351.31;5043518;28;20515;-82
2021/03/27 04:59:54;;;;;;;0.98;0.88;;;;;;;6.50;73.91;99344.44;5041898;28;20468;-82
2021/03/27 05:02:33;;;;;;;0.63;0.63;;;;;;;6.41;73.92;99367.81;5039948;28;20053;-83
2021/03/27 05:05:03;;;;;;;2.60;1.07;;;;;;;6.22;74.28;99349.91;5043043;28;20056;-82
2021/03/27 05:07:42;;;;;;;2.40;0.75;;;;;;;6.17;74.54;99357.59;5049877;28;20056;-83
2021/03/27 05:10:13;;;;;;;0.70;0.70;;;;;;;6.20;74.84;99395.97;5049070;28;20048;-82
2021/03/27 05:13:00;;;;;;;1.40;1.17;;;;;;;6.16;74.42;99393.72;5047799;28;20041;-82
2021/03/27 05:15:34;;;;;;;0.70;0.70;;;;;;;6.09;74.64;99420.44;5047061;28;20404;-83
2021/03/27 05:18:37;;;;;;;1.35;1.00;;;;;;;6.02;74.46;99427.44;5039032;28;20077;-82
2021/03/27 05:21:13;;;;;;;1.23;0.90;;;;;;;5.91;75.17;99419.50;5047832;28;20094;-82
2021/03/27 05:23:50;;;;;;;0.93;0.80;;;;;;;5.98;75.55;99445.78;5050733;28;20501;-82
2021/03/27 05:26:27;;;;;;;0.93;0.90;;;;;;;5.96;75.08;99446.91;5051939;28;20053;-82
2021/03/27 05:29:17;;;;;;;0.70;0.70;;;;;;;5.98;74.28;99472.78;5052372;28;20057;-82
2021/03/27 05:31:53;;;;;;;1.15;0.70;;;;;;;5.70;74.65;99471.84;5039090;28;20064;-82
2021/03/27 05:34:40;;;;;;;0.85;0.85;;;;;;;5.76;75.28;99484.72;5039414;28;20049;-82
2021/03/27 05:37:35;;;;;;;2.15;0.70;;;;;;;5.74;75.72;99485.91;5050887;28;20064;-82
2021/03/27 05:40:46;;;;;;;2.05;0.90;;;;;;;5.84;75.43;99509.16;5049605;28;20053;-82
2021/03/27 05:43:28;;;;;;;0.65;0.65;;;;;;;5.70;75.19;99495.28;4978165;28;20058;-83
2021/03/27 05:46:27;;;;;;;1.05;0.80;;;;;;;5.60;75.09;99498.84;5038315;28;20517;-82
2021/03/27 05:49:29;;;;;;;0.60;0.60;;;;;;;5.59;74.14;99525.97;5044248;28;20144;-83
2021/03/27 05:52:23;;;;;;;0.60;0.60;;;;;;;5.60;73.67;99530.34;5041193;28;20050;-83
2021/03/27 05:55:32;;;;;;;1.02;0.60;;;;;;;5.59;73.57;99542.97;5045728;28;20049;-83
2021/03/27 05:58:38;;;;;;;0.60;0.60;;;;;;;5.58;73.84;99537.72;5052914;28;20126;-83
2021/03/27 06:01:26;;;;;;;0.55;0.55;;;;;;;5.51;72.72;99534.78;5043349;28;20067;-83
2021/03/27 06:04:12;;;;;;;0.75;0.73;;;;;;;5.53;72.52;99538.16;5036691;28;20123;-84
2021/03/27 06:07:21;;;;;;;0.88;0.80;;;;;;;5.47;72.25;99541.44;5052137;28;20049;-82
2021/03/27 06:10:18;;;;;;;0.55;0.55;;;;;;;5.51;72.46;99572.53;4997197;28;20168;-83
2021/03/27 06:13:05;;;;;;;0.60;0.60;;;;;;;5.53;72.15;99578.63;5052948;28;20107;-83
2021/03/27 06:16:09;;;;;;;0.60;0.60;;;;;;;5.95;70.95;99599.03;5050941;28;20059;-83
2021/03/27 06:19:07;;;;;;;0.73;0.70;;;;;;;5.62;70.94;99576.91;5035970;28;20053;-82
2021/03/27 06:21:47;;;;;;;2.45;0.52;;;;;;;5.49;71.67;99572.69;5040060;28;20053;-82
2021/03/27 06:24:40;;;;;;;1.60;0.63;;;;;;;5.65;72.71;99609.84;5050929;28;20052;-82
2021/03/27 06:27:51;;;;;;;0.93;0.70;;;;;;;5.78;71.76;99608.69;5046426;28;20049;-83
2021/03/27 06:31:07;;;;;;;1.55;0.90;;;;;;;5.92;70.23;99605.56;5051718;28;20052;-82
2021/03/27 06:34:06;;;;;;;3.58;2.25;;;;;;;5.88;70.90;99631.13;5047325;28;20041;-81
2021/03/27 06:36:56;;;;;;;12.27;3.95;;;;;;;5.83;71.39;99611.84;5037053;28;20048;-81
2021/03/27 06:43:23;;;;;;;0.70;0.70;;;;;;;5.82;71.40;99629.00;5008957;28;20556;-83
2021/03/27 06:46:39;;;;;;;5.38;0.80;;;;;;;5.79;70.72;99615.81;5029464;28;20525;-83
2021/03/27 06:49:43;;;;;;;1.92;0.75;;;;;;;5.91;69.91;99625.44;5044228;28;20063;-82
2021/03/27 06:52:54;;;;;;;1.33;0.77;;;;;;;5.82;70.69;99629.84;5053294;28;20048;-82
2021/03/27 06:55:49;;;;;;;5.03;0.73;;;;;;;5.93;69.15;99644.19;5035518;28;20485;-83
2021/03/27 06:59:02;;;;;;;0.70;0.60;;;;;;;5.78;68.76;99638.38;5033648;28;20136;-81
2021/03/27 07:02:23;;;;;;;3.88;2.03;;;;;;;5.71;68.98;99665.09;5036775;28;20147;-86
2021/03/27 07:05:25;;;;;;;4.43;0.73;;;;;;;5.75;69.23;99658.41;5049324;28;20485;-84
2021/03/27 07:08:46;;;;;;;3.00;0.70;;;;;;;5.63;70.24;99643.34;5040854;28;20052;-84
2021/03/27 07:19:02;;;;;;;5.60;0.90;;;;;;;5.62;69.75;99668.63;5017920;28;20068;-84
2021/03/27 07:32:03;;;;;;;5.55;1.80;;;;;;;5.44;66.96;99665.75;5048291;28;20075;-85
2021/03/27 07:34:45;;;;;;;1.13;0.77;;;;;;;5.70;66.26;99684.94;5047789;28;20110;-85
2021/03/27 07:37:42;;;;;;;5.05;0.90;;;;;;;5.65;66.21;99681.84;5048634;28;20060;-85
2021/03/27 07:40:34;;;;;;;2.28;1.00;;;;;;;5.79;66.38;99694.88;5046605;28;20464;-84
2021/03/27 07:43:25;;;;;;;3.75;1.02;;;;;;;5.63;66.26;99681.97;5048943;28;20469;-85
2021/03/27 07:46:36;;;;;;;4.10;0.95;;;;;;;5.83;66.39;99692.78;5050383;28;20114;-84
2021/03/27 07:49:28;;;;;;;1.83;0.88;;;;;;;5.96;65.53;99709.53;5045496;28;20059;-81
2021/03/27 07:52:29;;;;;;;2.38;1.05;;;;;;;6.06;66.57;99706.88;5050653;28;20515;-81
2021/03/27 07:55:33;;;;;;;4.65;1.20;;;;;;;6.16;65.21;99701.47;5040767;28;20045;-81
2021/03/27 07:58:21;;;;;;;2.30;1.15;;;;;;;6.41;63.76;99702.69;5041065;28;20048;-81
2021/03/27 08:01:37;;;;;;;4.10;0.90;;;;;;;6.52;63.00;99693.59;5032481;28;20045;-80
2021/03/27 08:04:46;;;;;;;2.63;1.13;;;;;;;6.97;61.06;99717.22;5025812;28;20410;-86
2021/03/27 08:07:21;;;;;;;4.47;1.35;;;;;;;7.17;61.33;99720.66;5049081;28;20056;-82
2021/03/27 08:10:31;;;;;;;3.70;1.15;;;;;;;6.99;58.97;99706.25;5049721;28;20060;-82
2021/03/27 08:13:24;;;;;;;1.98;0.80;;;;;;;7.06;57.66;99708.19;5044239;28;20091;-83
2021/03/27 08:16:24;;;;;;;0.93;0.55;;;;;;;7.28;55.36;99737.72;5049668;28;20132;-83
2021/03/27 08:19:15;;;;;;;5.10;1.00;;;;;;;7.19;55.26;99734.03;5043342;28;20125;-85
2021/03/27 08:22:07;;;;;;;1.98;0.80;;;;;;;6.84;54.77;99719.38;5034741;28;20049;-83
2021/03/27 08:24:46;;;;;;;0.80;0.75;;;;;;;6.96;54.57;99741.69;5047564;28;20455;-83
2021/03/27 08:27:33;;;;;;;6.82;0.57;;;;;;;6.88;54.91;99750.50;5049182;28;20057;-83
2021/03/27 08:30:43;;;;;;;0.60;0.60;;;;;;;6.79;54.59;99730.66;5051026;28;20045;-83
2021/03/27 08:33:29;;;;;;;2.40;0.88;;;;;;;7.08;55.29;99746.75;5045880;28;20515;-84
2021/03/27 08:36:27;;;;;;;0.30;0.30;;;;;;;7.15;54.23;99744.31;5048916;28;20083;-83
2021/03/27 08:39:38;;;;;;;1.42;0.50;;;;;;;7.13;53.25;99742.75;5048485;28;20489;-84
2021/03/27 08:42:28;;;;;;;1.35;0.57;;;;;;;7.32;52.04;99728.31;5043500;28;20501;-84
2021/03/27 08:45:09;;;;;;;;;;;;;;;7.49;52.55;99745.56;5014086;28;20478;-84
2021/03/27 08:48:00;;;;;;;2.17;0.63;;;;;;;7.67;52.20;99751.88;5045736;28;20395;-85
2021/03/27 08:51:01;;;;;;;0.50;0.50;;;;;;;7.80;50.91;99751.53;5044818;28;20077;-83
2021/03/27 08:57:11;;;;;;;1.70;0.60;;;;;;;7.43;51.34;99739.75;5054852;28;20067;-83
2021/03/27 09:00:29;;;;;;;2.05;0.73;;;;;;;7.75;51.57;99724.03;5053603;28;20519;-84
2021/03/27 09:03:34;;;;;;;3.63;0.68;;;;;;;7.49;51.54;99730.19;4969496;28;20054;-84
2021/03/27 09:06:28;;;;;;;0.30;0.30;;;;;;;7.49;52.54;99737.47;4953712;29;20051;-84
2021/03/27 09:09:15;;;;;;;2.33;0.85;;;;;;;7.63;53.23;99761.28;5047947;28;20424;-83
2021/03/27 09:12:07;;;;;;;1.42;0.75;;;;;;;7.70;54.04;99750.72;5054406;28;20076;-84
2021/03/27 09:14:59;;;;;;;2.38;0.90;;;;;;;7.90;53.21;99748.72;5052025;28;20076;-84
2021/03/27 09:17:53;;;;;;;4.50;0.57;;;;;;;7.82;52.61;99752.22;5055097;28;20041;-84
2021/03/27 09:20:41;;;;;;;4.28;0.70;;;;;;;8.09;51.26;99761.28;5042261;28;20046;-84
2021/03/27 09:23:28;;;;;;;3.30;0.80;;;;;;;8.22;53.53;99771.72;5048422;28;20103;-84
2021/03/27 09:26:34;;;;;;;2.97;1.13;;;;;;;7.89;49.88;99771.38;5055738;28;20493;-84
2021/03/27 09:29:21;;;;;;;0.45;0.40;;;;;;;8.19;52.66;99796.41;5036388;28;20053;-83
2021/03/27 09:32:02;;;;;;;0.43;0.43;;;;;;;7.84;48.47;99801.63;5055577;28;20075;-84
2021/03/27 09:34:47;;;;;;;2.90;0.43;;;;;;;7.50;47.01;99787.84;5052435;28;20576;-85
2021/03/27 09:37:31;;;;;;;1.38;0.60;;;;;;;7.20;46.58;99798.78;5053069;28;20068;-84
2021/03/27 09:40:06;;;;;;;4.32;0.73;;;;;;;7.52;47.94;99807.50;5041896;28;20110;-83
2021/03/27 09:42:49;;;;;;;0.60;0.50;;;;;;;7.58;46.27;99793.38;5052972;28;20052;-83
2021/03/27 09:45:25;;;;;;;1.85;0.63;;;;;;;7.90;47.60;99798.34;5052543;28;20110;-79
2021/03/27 09:48:28;;;;;;;1.38;0.50;;;;;;;8.24;46.97;99818.47;5051831;28;20045;-83
2021/03/27 09:51:06;;;;;;;2.85;0.88;;;;;;;8.08;45.25;99784.78;5027922;28;20123;-84
2021/03/27 09:53:44;;;;;;;3.38;0.70;;;;;;;8.15;45.70;99809.41;5050498;28;20049;-83
2021/03/27 09:56:17;;;;;;;2.33;0.63;;;;;;;8.09;46.63;99805.47;5043162;28;20323;-83
2021/03/27 09:59:14;;;;;;;3.53;0.77;;;;;;;8.37;47.40;99813.53;5046850;28;20049;-84
2021/03/27 10:01:43;;;;;;;1.05;0.93;;;;;;;8.40;45.89;99798.81;5048889;28;20045;-82
2021/03/27 10:04:20;;;;;;;1.35;0.40;;;;;;;8.76;45.44;99815.94;5040010;28;20397;-83
2021/03/27 10:07:18;;;;;;;4.35;0.70;;;;;;;8.80;43.98;99811.88;5040827;28;20053;-83
2021/03/27 10:10:24;;;;;;;2.67;0.70;;;;;;;8.68;43.79;99794.16;5052625;28;20559;-83
2021/03/27 10:12:59;;;;;;;9.23;0.95;;;;;;;8.71;42.67;99810.13;4992371;28;20066;-84
2021/03/27 10:15:46;;;;;;;2.20;0.80;;;;;;;8.77;44.44;99806.78;5038219;28;20064;-83
2021/03/27 10:18:30;;;;;;;0.73;0.45;;;;;;;9.24;43.72;99810.16;5036448;28;20048;-83
2021/03/27 10:21:11;;;;;;;1.73;0.57;;;;;;;9.37;43.87;99829.56;5042845;28;20068;-83
2021/03/27 10:23:44;;;;;;;5.70;0.85;;;;;;;9.39;41.84;99824.81;5047646;28;20061;-83
2021/03/27 10:26:32;;;;;;;1.00;0.50;;;;;;;9.49;42.75;99820.13;5047168;28;20048;-83
2021/03/27 10:29:35;;;;;;;2.60;0.73;;;;;;;9.16;41.50;99808.25;5051955;28;20048;-83
2021/03/27 10:32:25;;;;;;;0.40;0.30;;;;;;;9.16;41.34;99806.38;5033911;28;20132;-84
2021/03/27 10:34:57;;;;;;;0.50;0.50;;;;;;;9.14;41.10;99791.28;5045094;28;20103;-84
2021/03/27 10:37:36;;;;;;;7.30;0.80;;;;;;;9.57;40.96;99827.44;5053864;28;20048;-84
2021/03/27 10:40:36;;;;;;;3.85;0.70;;;;;;;9.55;40.97;99808.63;5050666;28;20504;-83
2021/03/27 10:43:22;;;;;;;3.13;0.80;;;;;;;9.54;40.49;99842.22;5042639;28;20045;-85
2021/03/27 10:46:03;;;;;;;1.05;0.60;;;;;;;9.49;41.14;99841.00;5033242;28;20141;-84
2021/03/27 10:49:06;;;;;;;4.22;0.50;;;;;;;9.43;40.11;99826.19;5041224;28;20045;-83
2021/03/27 10:52:07;;;;;;;1.55;0.60;;;;;;;9.38;39.98;99855.69;5042897;28;20060;-83
2021/03/27 10:54:58;;;;;;;0.38;0.32;;;;;;;9.36;39.60;99826.00;5044500;28;20041;-83
2021/03/27 10:58:04;;;;;;;0.95;0.30;;;;;;;9.51;39.73;99844.38;5047529;28;20060;-84
2021/03/27 11:00:48;;;;;;;3.65;0.65;;;;;;;9.80;40.40;99835.88;5051371;28;20049;-83
2021/03/27 11:03:38;;;;;;;1.45;0.52;;;;;;;9.51;39.45;99841.69;5048826;28;20045;-83
2021/03/27 11:06:22;;;;;;;0.73;0.50;;;;;;;9.32;40.56;99862.59;5049961;28;20511;-84
2021/03/27 11:09:27;;;;;;;3.03;0.70;;;;;;;9.20;41.15;99864.72;5049701;28;20045;-83
2021/03/27 11:12:18;;;;;;;0.70;0.40;;;;;;;9.17;40.88;99870.47;4976183;28;20052;-83
2021/03/27 11:15:20;;;;;;;2.33;0.70;;;;;;;9.23;42.28;99877.13;5020424;28;20053;-83
2021/03/27 11:18:19;;;;;;;2.90;0.70;;;;;;;9.02;42.49;99872.06;5050955;28;20147;-84
2021/03/27 11:21:12;;;;;;;1.95;0.80;;;;;;;8.81;42.64;99873.25;5049994;28;20060;-83
2021/03/27 11:24:07;;;;;;;2.25;0.80;;;;;;;8.70;42.15;99878.03;5047523;28;20052;-83
2021/03/27 11:27:12;;;;;;;0.75;0.60;;;;;;;8.38;42.62;99872.13;5044849;28;20329;-83
2021/03/27 11:29:43;;;;;;;1.85;0.88;;;;;;;8.44;42.32;99885.06;5047774;28;20448;-84
2021/03/27 11:32:16;;;;;;;3.55;0.65;;;;;;;8.46;42.79;99864.13;5049429;28;20049;-83
2021/03/27 11:34:47;;;;;;;1.30;0.80;;;;;;;8.61;42.78;99887.94;5050497;28;20416;-83
2021/03/27 11:37:44;;;;;;;7.88;0.85;;;;;;;8.90;42.94;99865.16;5047799;28;20061;-82
2021/03/27 11:40:40;;;;;;;9.15;0.68;;;;;;;9.10;42.92;99860.41;5052024;28;20049;-82
2021/03/27 11:43:44;;;;;;;6.30;0.80;;;;;;;9.14;43.40;99878.94;5037689;28;20048;-82
2021/03/27 11:46:13;;;;;;;4.78;0.98;;;;;;;9.32;43.20;99867.16;5051472;28;20056;-81
2021/03/27 11:48:48;;;;;;;6.10;0.88;;;;;;;9.63;42.78;99864.81;5049202;28;20056;-81
2021/03/27 11:51:32;;;;;;;2.95;0.98;;;;;;;9.92;41.81;99877.16;5046329;28;20049;-81
2021/03/27 11:54:09;;;;;;;0.40;0.40;;;;;;;10.16;39.10;99868.28;5046865;28;20507;-81
2021/03/27 11:56:47;;;;;;;3.70;0.60;;;;;;;10.02;39.61;99868.91;5050167;28;20059;-82
2021/03/27 12:02:45;;;;;;;5.07;0.80;;;;;;;9.89;39.22;99872.06;5032986;28;20045;-83
2021/03/27 12:05:18;;;;;;;1.23;0.43;;;;;;;9.64;38.50;99863.81;5044978;28;20400;-83
2021/03/27 12:07:53;;;;;;;4.10;0.68;;;;;;;9.40;38.99;99845.53;5052202;28;20053;-81
2021/03/27 12:10:37;;;;;;;1.75;0.63;;;;;;;9.73;39.01;99875.56;5051937;28;20075;-82
2021/03/27 12:13:12;;;;;;;7.82;1.15;;;;;;;9.80;39.80;99854.91;5051839;28;20045;-82
2021/03/27 12:15:47;;;;;;;2.63;0.70;;;;;;;10.04;37.96;99858.69;5051955;28;20056;-82
2021/03/27 12:18:21;;;;;;;1.45;0.65;;;;;;;10.52;38.75;99859.03;5051152;28;20059;-82
2021/03/27 12:21:00;;;;;;;2.50;0.60;;;;;;;10.59;38.94;99866.34;5051717;28;20041;-83
2021/03/27 12:23:35;;;;;;;3.92;0.73;;;;;;;10.22;38.60;99851.31;5051648;28;20084;-82
2021/03/27 12:26:17;;;;;;;3.13;1.50;;;;;;;10.49;38.46;99860.22;5051714;28;20064;-80
2021/03/27 12:28:51;;;;;;;4.05;0.70;;;;;;;10.69;36.30;99855.31;5052141;28;20048;-82
2021/03/27 12:31:45;;;;;;;2.72;0.70;;;;;;;10.62;36.16;99865.16;5056029;28;20053;-80
2021/03/27 12:34:20;;;;;;;2.20;0.55;;;;;;;10.40;36.93;99872.09;5055271;28;20128;-81
2021/03/27 12:36:57;;;;;;;1.27;0.50;;;;;;;10.35;37.30;99850.84;5053926;28;20044;-81
2021/03/27 12:39:30;;;;;;;2.75;0.70;;;;;;;10.92;37.27;99858.22;5056073;28;20052;-83
2021/03/27 12:42:13;;;;;;;2.88;0.90;;;;;;;11.30;35.46;99853.06;5056778;28;20448;-85
2021/03/27 12:44:45;;;;;;;1.48;0.68;;;;;;;11.26;35.98;99868.06;5055777;28;20056;-84
2021/03/27 12:47:23;;;;;;;2.50;0.60;;;;;;;11.01;34.60;99847.34;5056469;28;20060;-84
2021/03/27 12:50:15;;;;;;;1.35;0.70;;;;;;;10.32;35.29;99864.75;5056647;28;20053;-84
2021/03/27 12:53:06;;;;;;;1.70;0.57;;;;;;;10.14;36.26;99855.88;5049428;28;20053;-84
2021/03/27 12:55:39;;;;;;;1.17;0.30;;;;;;;10.40;36.08;99853.06;5055785;28;20557;-85
2021/03/27 12:58:24;;;;;;;3.60;0.95;;;;;;;10.88;35.83;99864.16;5056684;28;20049;-87
2021/03/27 13:01:02;;;;;;;2.00;0.55;;;;;;;11.14;35.35;99853.09;5055564;28;20084;-84
2021/03/27 13:03:55;;;;;;;3.65;0.40;;;;;;;10.80;34.83;99854.97;5055757;28;20059;-86
2021/03/27 13:06:34;;;;;;;4.80;0.63;;;;;;;10.92;34.85;99860.94;5035809;28;20107;-84
2021/03/27 13:09:24;;;;;;;1.38;0.50;;;;;;;10.55;35.39;99859.56;5052821;28;20056;-84
2021/03/27 13:11:54;;;;;;;;;;;;;;;11.04;34.81;99879.66;5056264;28;20064;-85
2021/03/27 13:15:05;;;;;;;0.28;0.20;;;;;;;11.19;34.66;99867.03;5054824;28;19925;-84
2021/03/27 13:17:42;;;;;;;3.75;0.50;;;;;;;11.57;35.78;99848.25;5055934;28;20515;-83
2021/03/27 13:20:19;;;;;;;5.00;0.50;;;;;;;11.43;35.03;99860.72;5053990;28;20063;-83
2021/03/27 13:22:55;;;;;;;3.03;0.80;;;;;;;11.33;35.36;99868.22;5049826;28;20052;-84
2021/03/27 13:25:27;;;;;;;2.30;0.77;;;;;;;10.92;35.90;99847.31;5055094;28;20049;-85
2021/03/27 13:27:59;;;;;;;4.13;0.65;;;;;;;11.36;36.10;99856.97;5055227;28;20607;-85